Terminal Aerodrome Forecast
Issued by NWS

Home | Current Version | Previous Version | Text Only | Print | Product List | Glossary On
Versions: 1 2 3 4 5 6 7 8 9 10 11 12 13 14 15 16 17 18 19 20 21 22 23 24 25 26 27 28 29 30 31 32 33 34 35 36 37 38 39 40 41 42 43
000
FTUS43 KGLD 232320
TAFMCK
TAF
KMCK 232320Z 2400/2424 13010G18KT P6SM BKN035
     FM240200 12016G24KT P6SM VCTS OVC025CB
      TEMPO 2403/2406 3SM -SHRA BR BKN020
     FM240600 12007KT 1 1/2SM -DZ BR OVC003
     FM241500 12010G18KT 3SM BR OVC007
     FM242100 10010KT 5SM BR OVC015=

USA.gov is the U.S. government's official web portal to all federal, state and local government web resources and services.